sensor_id;sensor_type;location;lat;lon;timestamp;P1;durP1;ratioP1;P2;durP2;ratioP2
30149;SDS011;16962;48.646;9.026;2023-02-28T00:01:55;7.55;;;3.95;;
30149;SDS011;16962;48.646;9.026;2023-02-28T00:04:43;6.03;;;3.80;;
30149;SDS011;16962;48.646;9.026;2023-02-28T00:07:30;5.40;;;3.30;;
30149;SDS011;16962;48.646;9.026;2023-02-28T00:10:19;6.95;;;3.92;;
30149;SDS011;16962;48.646;9.026;2023-02-28T00:13:16;4.88;;;3.63;;
30149;SDS011;16962;48.646;9.026;2023-02-28T00:16:05;7.60;;;3.38;;
30149;SDS011;16962;48.646;9.026;2023-02-28T00:18:55;5.57;;;3.78;;
30149;SDS011;16962;48.646;9.026;2023-02-28T00:21:43;5.55;;;3.72;;
30149;SDS011;16962;48.646;9.026;2023-02-28T00:24:32;5.47;;;4.05;;
30149;SDS011;16962;48.646;9.026;2023-02-28T00:27:20;5.07;;;3.47;;
30149;SDS011;16962;48.646;9.026;2023-02-28T00:30:09;6.45;;;3.80;;
30149;SDS011;16962;48.646;9.026;2023-02-28T00:33:00;6.82;;;3.53;;
30149;SDS011;16962;48.646;9.026;2023-02-28T00:35:47;6.85;;;3.45;;
30149;SDS011;16962;48.646;9.026;2023-02-28T00:38:35;4.53;;;3.78;;
30149;SDS011;16962;48.646;9.026;2023-02-28T00:41:24;7.53;;;4.05;;
30149;SDS011;16962;48.646;9.026;2023-02-28T00:44:11;9.77;;;4.10;;
30149;SDS011;16962;48.646;9.026;2023-02-28T00:47:01;9.57;;;4.20;;
30149;SDS011;16962;48.646;9.026;2023-02-28T00:49:48;6.22;;;3.67;;
30149;SDS011;16962;48.646;9.026;2023-02-28T00:52:35;11.25;;;4.15;;
30149;SDS011;16962;48.646;9.026;2023-02-28T00:55:22;6.75;;;3.80;;
30149;SDS011;16962;48.646;9.026;2023-02-28T00:58:09;7.45;;;3.70;;
30149;SDS011;16962;48.646;9.026;2023-02-28T01:00:57;6.18;;;3.72;;
30149;SDS011;16962;48.646;9.026;2023-02-28T01:03:46;9.25;;;3.92;;
30149;SDS011;16962;48.646;9.026;2023-02-28T01:06:33;8.25;;;3.85;;
30149;SDS011;16962;48.646;9.026;2023-02-28T01:09:20;6.53;;;3.80;;
30149;SDS011;16962;48.646;9.026;2023-02-28T01:12:08;8.00;;;4.05;;
30149;SDS011;16962;48.646;9.026;2023-02-28T01:14:58;7.18;;;3.97;;
30149;SDS011;16962;48.646;9.026;2023-02-28T01:17:46;7.03;;;3.78;;
30149;SDS011;16962;48.646;9.026;2023-02-28T01:20:33;6.13;;;3.45;;
30149;SDS011;16962;48.646;9.026;2023-02-28T01:23:24;7.72;;;4.13;;
30149;SDS011;16962;48.646;9.026;2023-02-28T01:26:16;7.25;;;3.72;;
30149;SDS011;16962;48.646;9.026;2023-02-28T01:29:09;5.50;;;4.10;;
30149;SDS011;16962;48.646;9.026;2023-02-28T01:31:57;7.25;;;4.35;;
30149;SDS011;16962;48.646;9.026;2023-02-28T01:34:46;5.65;;;4.68;;
30149;SDS011;16962;48.646;9.026;2023-02-28T01:37:33;7.07;;;4.65;;
30149;SDS011;16962;48.646;9.026;2023-02-28T01:40:20;8.13;;;4.30;;
30149;SDS011;16962;48.646;9.026;2023-02-28T01:43:21;9.50;;;4.28;;
30149;SDS011;16962;48.646;9.026;2023-02-28T01:49:11;6.82;;;4.20;;
30149;SDS011;16962;48.646;9.026;2023-02-28T01:52:01;8.68;;;4.28;;
30149;SDS011;16962;48.646;9.026;2023-02-28T01:54:54;6.25;;;4.45;;
30149;SDS011;16962;48.646;9.026;2023-02-28T01:57:46;7.95;;;4.70;;
30149;SDS011;16962;48.646;9.026;2023-02-28T02:00:38;7.15;;;4.57;;
30149;SDS011;16962;48.646;9.026;2023-02-28T02:03:27;7.35;;;4.25;;
30149;SDS011;16962;48.646;9.026;2023-02-28T02:06:20;8.95;;;4.15;;
30149;SDS011;16962;48.646;9.026;2023-02-28T02:09:09;8.27;;;4.28;;
30149;SDS011;16962;48.646;9.026;2023-02-28T02:11:59;7.60;;;4.32;;
30149;SDS011;16962;48.646;9.026;2023-02-28T02:40:32;9.82;;;4.93;;
30149;SDS011;16962;48.646;9.026;2023-02-28T02:43:44;9.45;;;5.85;;
30149;SDS011;16962;48.646;9.026;2023-02-28T02:46:48;13.18;;;5.70;;
30149;SDS011;16962;48.646;9.026;2023-02-28T02:49:39;6.28;;;4.85;;
30149;SDS011;16962;48.646;9.026;2023-02-28T02:52:37;8.20;;;5.53;;
30149;SDS011;16962;48.646;9.026;2023-02-28T02:55:31;9.48;;;5.32;;
30149;SDS011;16962;48.646;9.026;2023-02-28T02:58:26;12.60;;;5.50;;
30149;SDS011;16962;48.646;9.026;2023-02-28T03:01:19;9.02;;;5.43;;
30149;SDS011;16962;48.646;9.026;2023-02-28T03:04:18;8.50;;;5.13;;
30149;SDS011;16962;48.646;9.026;2023-02-28T03:07:09;6.90;;;5.30;;
30149;SDS011;16962;48.646;9.026;2023-02-28T03:09:56;9.45;;;5.80;;
30149;SDS011;16962;48.646;9.026;2023-02-28T03:12:47;8.18;;;5.75;;
30149;SDS011;16962;48.646;9.026;2023-02-28T03:15:54;11.50;;;5.70;;
30149;SDS011;16962;48.646;9.026;2023-02-28T03:25:29;8.63;;;5.82;;
30149;SDS011;16962;48.646;9.026;2023-02-28T03:28:27;10.23;;;6.30;;
30149;SDS011;16962;48.646;9.026;2023-02-28T03:31:22;8.50;;;5.60;;
30149;SDS011;16962;48.646;9.026;2023-02-28T03:34:17;8.80;;;5.78;;
30149;SDS011;16962;48.646;9.026;2023-02-28T03:37:19;13.60;;;6.35;;
30149;SDS011;16962;48.646;9.026;2023-02-28T03:40:11;14.23;;;6.10;;
30149;SDS011;16962;48.646;9.026;2023-02-28T03:43:11;8.55;;;5.55;;
30149;SDS011;16962;48.646;9.026;2023-02-28T03:46:06;11.05;;;6.00;;
30149;SDS011;16962;48.646;9.026;2023-02-28T03:51:49;9.30;;;5.75;;
30149;SDS011;16962;48.646;9.026;2023-02-28T03:54:42;13.88;;;6.43;;
30149;SDS011;16962;48.646;9.026;2023-02-28T04:00:40;10.05;;;6.13;;
30149;SDS011;16962;48.646;9.026;2023-02-28T04:03:36;8.32;;;6.22;;
30149;SDS011;16962;48.646;9.026;2023-02-28T04:06:24;10.65;;;6.38;;
30149;SDS011;16962;48.646;9.026;2023-02-28T04:09:14;10.63;;;6.30;;
30149;SDS011;16962;48.646;9.026;2023-02-28T04:12:02;12.27;;;6.20;;
30149;SDS011;16962;48.646;9.026;2023-02-28T04:14:49;8.93;;;6.93;;
30149;SDS011;16962;48.646;9.026;2023-02-28T04:17:37;9.73;;;6.88;;
30149;SDS011;16962;48.646;9.026;2023-02-28T04:20:25;10.10;;;6.72;;
30149;SDS011;16962;48.646;9.026;2023-02-28T04:23:12;10.52;;;6.72;;
30149;SDS011;16962;48.646;9.026;2023-02-28T04:25:59;11.02;;;6.70;;
30149;SDS011;16962;48.646;9.026;2023-02-28T04:28:46;8.52;;;6.47;;
30149;SDS011;16962;48.646;9.026;2023-02-28T04:31:33;13.65;;;7.45;;
30149;SDS011;16962;48.646;9.026;2023-02-28T04:34:26;11.82;;;7.00;;
30149;SDS011;16962;48.646;9.026;2023-02-28T04:37:15;10.73;;;6.93;;
30149;SDS011;16962;48.646;9.026;2023-02-28T04:40:03;12.75;;;7.18;;
30149;SDS011;16962;48.646;9.026;2023-02-28T04:42:52;10.32;;;6.63;;
30149;SDS011;16962;48.646;9.026;2023-02-28T04:45:41;12.55;;;6.65;;
30149;SDS011;16962;48.646;9.026;2023-02-28T04:48:33;13.15;;;6.95;;
30149;SDS011;16962;48.646;9.026;2023-02-28T04:51:24;10.85;;;7.03;;
30149;SDS011;16962;48.646;9.026;2023-02-28T04:54:12;13.70;;;7.18;;
30149;SDS011;16962;48.646;9.026;2023-02-28T04:57:02;14.98;;;7.20;;
30149;SDS011;16962;48.646;9.026;2023-02-28T04:59:50;12.27;;;6.00;;
30149;SDS011;16962;48.646;9.026;2023-02-28T05:05:46;11.40;;;7.22;;
30149;SDS011;16962;48.646;9.026;2023-02-28T05:08:36;12.93;;;7.78;;
30149;SDS011;16962;48.646;9.026;2023-02-28T05:11:25;14.07;;;8.15;;
30149;SDS011;16962;48.646;9.026;2023-02-28T05:14:21;12.73;;;7.35;;
30149;SDS011;16962;48.646;9.026;2023-02-28T05:17:09;13.15;;;7.68;;
30149;SDS011;16962;48.646;9.026;2023-02-28T05:19:56;15.20;;;7.60;;
30149;SDS011;16962;48.646;9.026;2023-02-28T05:23:02;12.80;;;8.00;;
30149;SDS011;16962;48.646;9.026;2023-02-28T05:25:50;17.17;;;7.70;;
30149;SDS011;16962;48.646;9.026;2023-02-28T05:28:38;13.25;;;8.50;;
30149;SDS011;16962;48.646;9.026;2023-02-28T05:31:28;12.50;;;7.88;;
30149;SDS011;16962;48.646;9.026;2023-02-28T05:34:16;10.20;;;7.72;;
30149;SDS011;16962;48.646;9.026;2023-02-28T05:37:06;12.38;;;7.88;;
30149;SDS011;16962;48.646;9.026;2023-02-28T05:40:01;11.48;;;7.88;;
30149;SDS011;16962;48.646;9.026;2023-02-28T05:42:53;14.00;;;8.98;;
30149;SDS011;16962;48.646;9.026;2023-02-28T05:45:42;14.18;;;8.70;;
30149;SDS011;16962;48.646;9.026;2023-02-28T05:48:32;16.40;;;9.23;;
30149;SDS011;16962;48.646;9.026;2023-02-28T05:51:20;13.70;;;9.00;;
30149;SDS011;16962;48.646;9.026;2023-02-28T05:54:11;19.80;;;9.43;;
30149;SDS011;16962;48.646;9.026;2023-02-28T05:56:59;15.20;;;9.68;;
30149;SDS011;16962;48.646;9.026;2023-02-28T05:59:46;19.17;;;10.40;;
30149;SDS011;16962;48.646;9.026;2023-02-28T06:02:34;14.75;;;9.88;;
30149;SDS011;16962;48.646;9.026;2023-02-28T06:05:22;16.08;;;9.80;;
30149;SDS011;16962;48.646;9.026;2023-02-28T06:08:10;12.88;;;9.55;;
30149;SDS011;16962;48.646;9.026;2023-02-28T06:10:58;17.35;;;9.55;;
30149;SDS011;16962;48.646;9.026;2023-02-28T06:13:49;17.30;;;10.32;;
30149;SDS011;16962;48.646;9.026;2023-02-28T06:16:39;18.02;;;9.25;;
30149;SDS011;16962;48.646;9.026;2023-02-28T06:19:26;15.63;;;9.80;;
30149;SDS011;16962;48.646;9.026;2023-02-28T06:22:18;14.63;;;9.75;;
30149;SDS011;16962;48.646;9.026;2023-02-28T06:25:08;14.45;;;10.10;;
30149;SDS011;16962;48.646;9.026;2023-02-28T06:27:59;17.67;;;10.68;;
30149;SDS011;16962;48.646;9.026;2023-02-28T06:30:46;15.40;;;10.20;;
30149;SDS011;16962;48.646;9.026;2023-02-28T06:33:36;18.30;;;10.07;;
30149;SDS011;16962;48.646;9.026;2023-02-28T06:36:24;17.00;;;10.52;;
30149;SDS011;16962;48.646;9.026;2023-02-28T06:39:12;21.20;;;11.05;;
30149;SDS011;16962;48.646;9.026;2023-02-28T06:42:01;17.73;;;11.25;;
30149;SDS011;16962;48.646;9.026;2023-02-28T06:44:50;18.98;;;11.35;;
30149;SDS011;16962;48.646;9.026;2023-02-28T06:47:38;19.73;;;10.80;;
30149;SDS011;16962;48.646;9.026;2023-02-28T06:50:29;18.05;;;10.35;;
30149;SDS011;16962;48.646;9.026;2023-02-28T06:53:31;18.48;;;10.82;;
30149;SDS011;16962;48.646;9.026;2023-02-28T07:01:42;16.55;;;10.20;;
30149;SDS011;16962;48.646;9.026;2023-02-28T07:30:23;19.83;;;10.48;;
30149;SDS011;16962;48.646;9.026;2023-02-28T07:37:26;18.85;;;10.65;;
30149;SDS011;16962;48.646;9.026;2023-02-28T07:45:16;17.58;;;10.05;;
30149;SDS011;16962;48.646;9.026;2023-02-28T08:54:07;23.95;;;12.65;;
30149;SDS011;16962;48.646;9.026;2023-02-28T09:09:33;23.10;;;13.02;;
30149;SDS011;16962;48.646;9.026;2023-02-28T09:12:58;27.30;;;12.80;;
30149;SDS011;16962;48.646;9.026;2023-02-28T09:15:48;22.10;;;11.90;;
30149;SDS011;16962;48.646;9.026;2023-02-28T09:18:37;16.85;;;11.63;;
30149;SDS011;16962;48.646;9.026;2023-02-28T09:21:25;21.40;;;12.00;;
30149;SDS011;16962;48.646;9.026;2023-02-28T09:24:16;18.70;;;11.40;;
30149;SDS011;16962;48.646;9.026;2023-02-28T09:27:07;21.38;;;9.57;;
30149;SDS011;16962;48.646;9.026;2023-02-28T09:29:58;17.63;;;11.10;;
30149;SDS011;16962;48.646;9.026;2023-02-28T09:33:09;21.55;;;11.93;;
30149;SDS011;16962;48.646;9.026;2023-02-28T09:36:00;18.70;;;11.65;;
30149;SDS011;16962;48.646;9.026;2023-02-28T09:38:56;19.23;;;12.00;;
30149;SDS011;16962;48.646;9.026;2023-02-28T09:41:44;25.75;;;12.48;;
30149;SDS011;16962;48.646;9.026;2023-02-28T09:44:42;19.67;;;11.80;;
30149;SDS011;16962;48.646;9.026;2023-02-28T09:47:42;18.70;;;11.77;;
30149;SDS011;16962;48.646;9.026;2023-02-28T09:56:45;20.83;;;12.13;;
30149;SDS011;16962;48.646;9.026;2023-02-28T10:05:39;17.05;;;11.38;;
30149;SDS011;16962;48.646;9.026;2023-02-28T10:11:48;20.60;;;12.05;;
30149;SDS011;16962;48.646;9.026;2023-02-28T10:14:45;23.88;;;12.73;;
30149;SDS011;16962;48.646;9.026;2023-02-28T10:17:38;19.63;;;12.23;;
30149;SDS011;16962;48.646;9.026;2023-02-28T10:20:41;20.58;;;12.32;;
30149;SDS011;16962;48.646;9.026;2023-02-28T10:23:39;19.95;;;11.90;;
30149;SDS011;16962;48.646;9.026;2023-02-28T10:26:26;18.40;;;11.88;;
30149;SDS011;16962;48.646;9.026;2023-02-28T10:29:21;22.63;;;12.20;;
30149;SDS011;16962;48.646;9.026;2023-02-28T10:32:09;24.67;;;12.50;;
30149;SDS011;16962;48.646;9.026;2023-02-28T10:35:35;20.98;;;12.30;;
30149;SDS011;16962;48.646;9.026;2023-02-28T10:43:00;16.90;;;11.35;;
30149;SDS011;16962;48.646;9.026;2023-02-28T10:46:30;21.65;;;12.52;;
30149;SDS011;16962;48.646;9.026;2023-02-28T10:49:35;17.52;;;10.88;;
30149;SDS011;16962;48.646;9.026;2023-02-28T10:52:41;20.98;;;11.98;;
30149;SDS011;16962;48.646;9.026;2023-02-28T10:56:19;16.88;;;10.85;;
30149;SDS011;16962;48.646;9.026;2023-02-28T10:59:31;16.65;;;10.95;;
30149;SDS011;16962;48.646;9.026;2023-02-28T11:02:33;14.65;;;10.00;;
30149;SDS011;16962;48.646;9.026;2023-02-28T11:05:33;15.93;;;10.57;;
30149;SDS011;16962;48.646;9.026;2023-02-28T11:08:37;21.20;;;11.48;;
30149;SDS011;16962;48.646;9.026;2023-02-28T11:11:43;15.20;;;10.60;;
30149;SDS011;16962;48.646;9.026;2023-02-28T11:14:55;19.23;;;11.43;;
30149;SDS011;16962;48.646;9.026;2023-02-28T11:21:33;22.60;;;11.75;;
30149;SDS011;16962;48.646;9.026;2023-02-28T11:24:44;17.70;;;11.10;;
30149;SDS011;16962;48.646;9.026;2023-02-28T11:38:09;19.92;;;12.90;;
30149;SDS011;16962;48.646;9.026;2023-02-28T11:41:09;20.95;;;12.70;;
30149;SDS011;16962;48.646;9.026;2023-02-28T11:56:41;18.15;;;11.68;;
30149;SDS011;16962;48.646;9.026;2023-02-28T11:59:56;17.10;;;11.55;;
30149;SDS011;16962;48.646;9.026;2023-02-28T12:03:03;17.63;;;10.63;;
30149;SDS011;16962;48.646;9.026;2023-02-28T12:23:22;16.48;;;10.30;;
30149;SDS011;16962;48.646;9.026;2023-02-28T12:35:02;16.05;;;9.07;;
30149;SDS011;16962;48.646;9.026;2023-02-28T12:38:12;15.30;;;10.10;;
30149;SDS011;16962;48.646;9.026;2023-02-28T12:41:10;17.17;;;10.32;;
30149;SDS011;16962;48.646;9.026;2023-02-28T12:44:04;16.38;;;10.70;;
30149;SDS011;16962;48.646;9.026;2023-02-28T12:47:02;12.73;;;9.38;;
30149;SDS011;16962;48.646;9.026;2023-02-28T12:56:07;15.32;;;9.50;;
30149;SDS011;16962;48.646;9.026;2023-02-28T12:59:14;13.95;;;9.75;;
30149;SDS011;16962;48.646;9.026;2023-02-28T13:14:44;14.18;;;9.68;;
30149;SDS011;16962;48.646;9.026;2023-02-28T13:17:58;14.77;;;9.65;;
30149;SDS011;16962;48.646;9.026;2023-02-28T13:21:22;14.05;;;9.13;;
30149;SDS011;16962;48.646;9.026;2023-02-28T13:27:43;12.13;;;8.48;;
30149;SDS011;16962;48.646;9.026;2023-02-28T13:40:37;14.18;;;9.13;;
30149;SDS011;16962;48.646;9.026;2023-02-28T13:43:59;19.08;;;9.52;;
30149;SDS011;16962;48.646;9.026;2023-02-28T13:49:44;13.27;;;9.27;;
30149;SDS011;16962;48.646;9.026;2023-02-28T13:52:36;13.95;;;9.75;;
30149;SDS011;16962;48.646;9.026;2023-02-28T13:58:57;13.52;;;9.60;;
30149;SDS011;16962;48.646;9.026;2023-02-28T14:05:12;13.90;;;9.55;;
30149;SDS011;16962;48.646;9.026;2023-02-28T14:08:06;13.27;;;10.27;;
30149;SDS011;16962;48.646;9.026;2023-02-28T14:11:04;18.33;;;9.77;;
30149;SDS011;16962;48.646;9.026;2023-02-28T14:47:15;15.90;;;9.50;;
30149;SDS011;16962;48.646;9.026;2023-02-28T15:17:59;13.70;;;9.40;;
30149;SDS011;16962;48.646;9.026;2023-02-28T15:20:52;14.38;;;9.90;;
30149;SDS011;16962;48.646;9.026;2023-02-28T15:23:57;15.20;;;9.95;;
30149;SDS011;16962;48.646;9.026;2023-02-28T15:26:54;13.70;;;10.13;;
30149;SDS011;16962;48.646;9.026;2023-02-28T15:29:46;15.60;;;10.55;;
30149;SDS011;16962;48.646;9.026;2023-02-28T15:32:44;15.68;;;10.85;;
30149;SDS011;16962;48.646;9.026;2023-02-28T15:35:48;15.55;;;10.55;;
30149;SDS011;16962;48.646;9.026;2023-02-28T15:38:37;13.98;;;10.70;;
30149;SDS011;16962;48.646;9.026;2023-02-28T15:44:27;16.10;;;11.02;;
30149;SDS011;16962;48.646;9.026;2023-02-28T15:47:24;20.85;;;11.55;;
30149;SDS011;16962;48.646;9.026;2023-02-28T15:50:16;14.45;;;10.30;;
30149;SDS011;16962;48.646;9.026;2023-02-28T15:53:05;15.18;;;9.80;;
30149;SDS011;16962;48.646;9.026;2023-02-28T15:56:02;16.02;;;9.85;;
30149;SDS011;16962;48.646;9.026;2023-02-28T15:58:55;16.38;;;10.73;;
30149;SDS011;16962;48.646;9.026;2023-02-28T16:01:45;19.67;;;11.75;;
30149;SDS011;16962;48.646;9.026;2023-02-28T16:04:33;15.48;;;10.98;;
30149;SDS011;16962;48.646;9.026;2023-02-28T16:07:20;15.35;;;10.75;;
30149;SDS011;16962;48.646;9.026;2023-02-28T16:10:08;20.13;;;10.52;;
30149;SDS011;16962;48.646;9.026;2023-02-28T16:13:01;14.50;;;10.77;;
30149;SDS011;16962;48.646;9.026;2023-02-28T16:15:49;17.67;;;10.68;;
30149;SDS011;16962;48.646;9.026;2023-02-28T16:18:40;20.15;;;11.55;;
30149;SDS011;16962;48.646;9.026;2023-02-28T16:21:30;15.80;;;11.30;;
30149;SDS011;16962;48.646;9.026;2023-02-28T16:24:20;16.25;;;11.48;;
30149;SDS011;16962;48.646;9.026;2023-02-28T16:27:19;16.13;;;11.30;;
30149;SDS011;16962;48.646;9.026;2023-02-28T16:30:24;21.40;;;12.95;;
30149;SDS011;16962;48.646;9.026;2023-02-28T16:33:16;33.58;;;17.73;;
30149;SDS011;16962;48.646;9.026;2023-02-28T16:36:17;23.40;;;14.00;;
30149;SDS011;16962;48.646;9.026;2023-02-28T16:39:11;20.45;;;13.32;;
30149;SDS011;16962;48.646;9.026;2023-02-28T16:41:59;20.00;;;13.20;;
30149;SDS011;16962;48.646;9.026;2023-02-28T16:44:47;20.92;;;12.65;;
30149;SDS011;16962;48.646;9.026;2023-02-28T16:47:36;20.63;;;13.25;;
30149;SDS011;16962;48.646;9.026;2023-02-28T16:50:27;22.67;;;13.57;;
30149;SDS011;16962;48.646;9.026;2023-02-28T16:53:20;21.17;;;13.65;;
30149;SDS011;16962;48.646;9.026;2023-02-28T16:56:42;20.85;;;12.88;;
30149;SDS011;16962;48.646;9.026;2023-02-28T16:59:22;18.75;;;13.20;;
30149;SDS011;16962;48.646;9.026;2023-02-28T17:02:14;21.55;;;12.55;;
30149;SDS011;16962;48.646;9.026;2023-02-28T17:05:03;21.27;;;12.95;;
30149;SDS011;16962;48.646;9.026;2023-02-28T17:07:51;19.42;;;12.48;;
30149;SDS011;16962;48.646;9.026;2023-02-28T17:10:38;21.98;;;13.30;;
30149;SDS011;16962;48.646;9.026;2023-02-28T17:13:25;21.35;;;13.50;;
30149;SDS011;16962;48.646;9.026;2023-02-28T17:16:28;26.00;;;14.35;;
30149;SDS011;16962;48.646;9.026;2023-02-28T17:19:17;19.90;;;12.60;;
30149;SDS011;16962;48.646;9.026;2023-02-28T17:22:07;20.08;;;13.38;;
30149;SDS011;16962;48.646;9.026;2023-02-28T17:24:55;25.77;;;15.05;;
30149;SDS011;16962;48.646;9.026;2023-02-28T17:27:45;26.13;;;14.55;;
30149;SDS011;16962;48.646;9.026;2023-02-28T17:30:35;23.15;;;14.13;;
30149;SDS011;16962;48.646;9.026;2023-02-28T17:33:25;21.15;;;14.00;;
30149;SDS011;16962;48.646;9.026;2023-02-28T17:36:16;23.65;;;14.02;;
30149;SDS011;16962;48.646;9.026;2023-02-28T17:39:08;25.63;;;14.23;;
30149;SDS011;16962;48.646;9.026;2023-02-28T17:41:57;21.70;;;14.40;;
30149;SDS011;16962;48.646;9.026;2023-02-28T17:44:44;25.63;;;14.40;;
30149;SDS011;16962;48.646;9.026;2023-02-28T17:47:31;24.75;;;15.10;;
30149;SDS011;16962;48.646;9.026;2023-02-28T17:50:20;21.92;;;14.00;;
30149;SDS011;16962;48.646;9.026;2023-02-28T17:53:08;20.98;;;13.98;;
30149;SDS011;16962;48.646;9.026;2023-02-28T17:55:56;26.17;;;14.07;;
30149;SDS011;16962;48.646;9.026;2023-02-28T17:58:43;24.08;;;14.52;;
30149;SDS011;16962;48.646;9.026;2023-02-28T18:01:33;25.33;;;14.88;;
30149;SDS011;16962;48.646;9.026;2023-02-28T18:04:21;28.95;;;14.45;;
30149;SDS011;16962;48.646;9.026;2023-02-28T18:07:10;28.08;;;14.77;;
30149;SDS011;16962;48.646;9.026;2023-02-28T18:09:58;26.70;;;14.38;;
30149;SDS011;16962;48.646;9.026;2023-02-28T18:12:50;23.17;;;14.82;;
30149;SDS011;16962;48.646;9.026;2023-02-28T18:15:39;24.10;;;14.57;;
30149;SDS011;16962;48.646;9.026;2023-02-28T18:18:27;24.38;;;14.65;;
30149;SDS011;16962;48.646;9.026;2023-02-28T18:21:16;24.63;;;15.30;;
30149;SDS011;16962;48.646;9.026;2023-02-28T18:24:03;30.63;;;14.70;;
30149;SDS011;16962;48.646;9.026;2023-02-28T18:26:51;24.20;;;14.57;;
30149;SDS011;16962;48.646;9.026;2023-02-28T18:29:41;26.30;;;14.82;;
30149;SDS011;16962;48.646;9.026;2023-02-28T18:32:31;26.25;;;15.27;;
30149;SDS011;16962;48.646;9.026;2023-02-28T18:35:18;27.50;;;15.30;;
30149;SDS011;16962;48.646;9.026;2023-02-28T18:38:20;28.17;;;16.25;;
30149;SDS011;16962;48.646;9.026;2023-02-28T18:41:11;28.65;;;15.23;;
30149;SDS011;16962;48.646;9.026;2023-02-28T18:44:00;32.40;;;18.02;;
30149;SDS011;16962;48.646;9.026;2023-02-28T18:47:04;29.60;;;16.75;;
30149;SDS011;16962;48.646;9.026;2023-02-28T18:49:54;29.15;;;16.90;;
30149;SDS011;16962;48.646;9.026;2023-02-28T18:52:41;30.75;;;15.60;;
30149;SDS011;16962;48.646;9.026;2023-02-28T18:55:32;27.40;;;15.75;;
30149;SDS011;16962;48.646;9.026;2023-02-28T18:58:22;29.45;;;16.10;;
30149;SDS011;16962;48.646;9.026;2023-02-28T19:04:04;29.05;;;14.80;;
30149;SDS011;16962;48.646;9.026;2023-02-28T19:06:52;26.67;;;14.90;;
30149;SDS011;16962;48.646;9.026;2023-02-28T19:09:42;23.67;;;15.23;;
30149;SDS011;16962;48.646;9.026;2023-02-28T19:12:32;28.42;;;14.63;;
30149;SDS011;16962;48.646;9.026;2023-02-28T19:15:21;26.75;;;15.63;;
30149;SDS011;16962;48.646;9.026;2023-02-28T19:18:08;26.27;;;14.80;;
30149;SDS011;16962;48.646;9.026;2023-02-28T19:20:56;27.98;;;16.10;;
30149;SDS011;16962;48.646;9.026;2023-02-28T19:23:44;28.52;;;15.68;;
30149;SDS011;16962;48.646;9.026;2023-02-28T19:26:34;28.40;;;16.73;;
30149;SDS011;16962;48.646;9.026;2023-02-28T19:29:22;31.02;;;15.07;;
30149;SDS011;16962;48.646;9.026;2023-02-28T19:32:12;29.38;;;16.27;;
30149;SDS011;16962;48.646;9.026;2023-02-28T19:35:00;28.75;;;15.82;;
30149;SDS011;16962;48.646;9.026;2023-02-28T19:37:48;27.15;;;15.77;;
30149;SDS011;16962;48.646;9.026;2023-02-28T19:40:38;33.25;;;18.45;;
30149;SDS011;16962;48.646;9.026;2023-02-28T19:43:26;34.75;;;17.60;;
30149;SDS011;16962;48.646;9.026;2023-02-28T19:46:14;30.02;;;18.05;;
30149;SDS011;16962;48.646;9.026;2023-02-28T19:49:04;29.65;;;16.98;;
30149;SDS011;16962;48.646;9.026;2023-02-28T19:51:52;37.70;;;17.63;;
30149;SDS011;16962;48.646;9.026;2023-02-28T19:54:42;27.65;;;16.95;;
30149;SDS011;16962;48.646;9.026;2023-02-28T19:57:29;31.23;;;17.02;;
30149;SDS011;16962;48.646;9.026;2023-02-28T20:00:17;36.15;;;17.83;;
30149;SDS011;16962;48.646;9.026;2023-02-28T20:03:05;32.95;;;18.10;;
30149;SDS011;16962;48.646;9.026;2023-02-28T20:05:59;33.65;;;18.58;;
30149;SDS011;16962;48.646;9.026;2023-02-28T20:08:53;29.63;;;16.58;;
30149;SDS011;16962;48.646;9.026;2023-02-28T20:11:43;28.02;;;16.45;;
30149;SDS011;16962;48.646;9.026;2023-02-28T20:14:32;31.98;;;17.75;;
30149;SDS011;16962;48.646;9.026;2023-02-28T20:17:20;29.17;;;17.30;;
30149;SDS011;16962;48.646;9.026;2023-02-28T20:20:09;26.95;;;15.15;;
30149;SDS011;16962;48.646;9.026;2023-02-28T20:22:58;29.90;;;16.55;;
30149;SDS011;16962;48.646;9.026;2023-02-28T20:25:46;28.48;;;15.98;;
30149;SDS011;16962;48.646;9.026;2023-02-28T20:28:34;31.80;;;16.75;;
30149;SDS011;16962;48.646;9.026;2023-02-28T20:31:22;30.15;;;16.88;;
30149;SDS011;16962;48.646;9.026;2023-02-28T20:34:11;27.85;;;16.13;;
30149;SDS011;16962;48.646;9.026;2023-02-28T20:36:59;34.70;;;17.83;;
30149;SDS011;16962;48.646;9.026;2023-02-28T20:39:47;30.45;;;16.88;;
30149;SDS011;16962;48.646;9.026;2023-02-28T20:42:38;29.52;;;16.55;;
30149;SDS011;16962;48.646;9.026;2023-02-28T20:45:26;27.60;;;16.55;;
30149;SDS011;16962;48.646;9.026;2023-02-28T20:48:14;31.92;;;17.70;;
30149;SDS011;16962;48.646;9.026;2023-02-28T20:51:04;29.23;;;17.05;;
30149;SDS011;16962;48.646;9.026;2023-02-28T20:53:52;33.10;;;17.58;;
30149;SDS011;16962;48.646;9.026;2023-02-28T20:56:40;30.85;;;17.67;;
30149;SDS011;16962;48.646;9.026;2023-02-28T20:59:31;38.55;;;19.85;;
30149;SDS011;16962;48.646;9.026;2023-02-28T21:02:20;35.08;;;19.35;;
30149;SDS011;16962;48.646;9.026;2023-02-28T21:05:10;30.88;;;17.75;;
30149;SDS011;16962;48.646;9.026;2023-02-28T21:08:00;31.65;;;17.88;;
30149;SDS011;16962;48.646;9.026;2023-02-28T21:10:50;31.13;;;17.52;;
30149;SDS011;16962;48.646;9.026;2023-02-28T21:13:38;32.42;;;17.85;;
30149;SDS011;16962;48.646;9.026;2023-02-28T21:16:27;36.50;;;17.85;;
30149;SDS011;16962;48.646;9.026;2023-02-28T21:19:16;34.97;;;18.70;;
30149;SDS011;16962;48.646;9.026;2023-02-28T21:22:04;28.48;;;17.50;;
30149;SDS011;16962;48.646;9.026;2023-02-28T21:24:56;41.92;;;19.05;;
30149;SDS011;16962;48.646;9.026;2023-02-28T21:27:46;34.13;;;18.63;;
30149;SDS011;16962;48.646;9.026;2023-02-28T21:30:35;37.30;;;19.58;;
30149;SDS011;16962;48.646;9.026;2023-02-28T21:33:23;33.10;;;18.08;;
30149;SDS011;16962;48.646;9.026;2023-02-28T21:36:15;35.70;;;19.50;;
30149;SDS011;16962;48.646;9.026;2023-02-28T21:39:10;34.67;;;19.30;;
30149;SDS011;16962;48.646;9.026;2023-02-28T21:42:17;38.92;;;20.42;;
30149;SDS011;16962;48.646;9.026;2023-02-28T21:45:05;38.67;;;20.05;;
30149;SDS011;16962;48.646;9.026;2023-02-28T21:47:53;30.67;;;17.83;;
30149;SDS011;16962;48.646;9.026;2023-02-28T21:50:41;35.35;;;20.70;;
30149;SDS011;16962;48.646;9.026;2023-02-28T21:53:31;35.50;;;19.45;;
30149;SDS011;16962;48.646;9.026;2023-02-28T21:56:20;39.85;;;19.67;;
30149;SDS011;16962;48.646;9.026;2023-02-28T21:59:10;39.00;;;20.60;;
30149;SDS011;16962;48.646;9.026;2023-02-28T22:01:57;38.40;;;20.08;;
30149;SDS011;16962;48.646;9.026;2023-02-28T22:04:45;36.00;;;20.27;;
30149;SDS011;16962;48.646;9.026;2023-02-28T22:07:32;37.40;;;19.88;;
30149;SDS011;16962;48.646;9.026;2023-02-28T22:10:20;35.45;;;19.65;;
30149;SDS011;16962;48.646;9.026;2023-02-28T22:13:08;40.60;;;20.80;;
30149;SDS011;16962;48.646;9.026;2023-02-28T22:15:55;39.70;;;20.00;;
30149;SDS011;16962;48.646;9.026;2023-02-28T22:18:47;37.83;;;20.17;;
30149;SDS011;16962;48.646;9.026;2023-02-28T22:21:37;39.58;;;19.52;;
30149;SDS011;16962;48.646;9.026;2023-02-28T22:24:28;36.03;;;20.15;;
30149;SDS011;16962;48.646;9.026;2023-02-28T22:27:15;39.78;;;21.50;;
30149;SDS011;16962;48.646;9.026;2023-02-28T22:30:05;37.22;;;20.17;;
30149;SDS011;16962;48.646;9.026;2023-02-28T22:32:53;34.40;;;19.75;;
30149;SDS011;16962;48.646;9.026;2023-02-28T22:35:40;38.17;;;20.70;;
30149;SDS011;16962;48.646;9.026;2023-02-28T22:38:27;36.90;;;20.13;;
30149;SDS011;16962;48.646;9.026;2023-02-28T22:41:21;37.22;;;19.83;;